createdAt,value
2023-03-21T00:00:42.017Z,82.02
2023-03-21T00:03:21.050Z,81.91
2023-03-21T00:05:51.314Z,81.97
2023-03-21T00:08:18.247Z,82.00
2023-03-21T00:10:45.080Z,82.08
2023-03-21T00:13:12.684Z,82.13
2023-03-21T00:16:03.439Z,82.06
2023-03-21T00:18:32.076Z,82.26
2023-03-21T00:21:29.381Z,82.25
2023-03-21T00:23:47.070Z,82.55
2023-03-21T00:26:14.862Z,82.46
2023-03-21T00:28:43.085Z,82.28
2023-03-21T00:31:10.248Z,82.31
2023-03-21T00:33:38.543Z,82.22
2023-03-21T00:36:06.947Z,82.00
2023-03-21T00:38:34.483Z,81.92
2023-03-21T00:41:14.938Z,81.55
2023-03-21T00:43:45.984Z,81.92
2023-03-21T00:46:12.542Z,81.92
2023-03-21T00:48:38.970Z,81.88
2023-03-21T00:51:20.830Z,81.81
2023-03-21T00:53:47.249Z,82.10
2023-03-21T00:56:13.632Z,82.19
2023-03-21T00:58:40.185Z,82.19
2023-03-21T01:01:08.659Z,82.43
2023-03-21T01:03:42.224Z,82.31
2023-03-21T01:06:12.863Z,82.26
2023-03-21T01:08:52.240Z,82.28
2023-03-21T01:11:23.567Z,82.11
2023-03-21T01:14:10.967Z,82.07
2023-03-21T01:16:38.223Z,82.29
2023-03-21T01:19:09.372Z,82.25
2023-03-21T01:21:41.739Z,82.16
2023-03-21T01:24:08.969Z,82.07
2023-03-21T01:26:36.861Z,82.14
2023-03-21T01:29:04.871Z,82.40
2023-03-21T01:31:31.349Z,82.25
2023-03-21T01:33:57.854Z,82.14
2023-03-21T01:36:26.507Z,82.07
2023-03-21T01:38:53.399Z,82.51
2023-03-21T01:41:36.708Z,82.63
2023-03-21T01:44:18.944Z,82.74
2023-03-21T01:47:09.244Z,82.96
2023-03-21T01:49:45.207Z,83.03
2023-03-21T01:52:36.349Z,83.06
2023-03-21T01:55:11.058Z,83.07
2023-03-21T01:58:01.992Z,83.15
2023-03-21T02:00:32.314Z,83.42
2023-03-21T02:03:11.594Z,83.56
2023-03-21T02:06:02.924Z,83.39
2023-03-21T02:08:39.296Z,83.31
2023-03-21T02:11:09.449Z,83.21
2023-03-21T02:13:36.202Z,83.16
2023-03-21T02:16:28.491Z,83.08
2023-03-21T02:19:17.544Z,83.26
2023-03-21T02:21:56.106Z,83.08
2023-03-21T02:25:01.253Z,83.01
2023-03-21T02:27:41.822Z,83.22
2023-03-21T02:30:50.856Z,83.07
2023-03-21T02:33:50.249Z,83.42
2023-03-21T02:36:39.732Z,83.59
2023-03-21T02:39:15.325Z,83.70
2023-03-21T02:41:49.989Z,83.74
2023-03-21T02:44:19.510Z,84.03
2023-03-21T02:46:59.728Z,84.12
2023-03-21T02:49:46.619Z,84.14
2023-03-21T02:52:35.657Z,84.19
2023-03-21T02:55:12.917Z,84.30
2023-03-21T02:57:43.924Z,84.37
2023-03-21T03:00:17.699Z,84.26
2023-03-21T03:02:45.512Z,84.42
2023-03-21T03:05:27.154Z,84.44
2023-03-21T03:08:17.522Z,84.50
2023-03-21T03:11:11.952Z,84.52
2023-03-21T03:14:25.395Z,84.98
2023-03-21T03:17:07.289Z,85.21
2023-03-21T03:19:52.635Z,85.11
2023-03-21T03:22:37.327Z,84.78
2023-03-21T03:25:21.337Z,84.76
2023-03-21T03:27:58.127Z,84.87
2023-03-21T03:30:32.339Z,85.10
2023-03-21T03:33:09.884Z,85.14
2023-03-21T03:35:37.191Z,84.88
2023-03-21T03:38:07.251Z,84.75
2023-03-21T03:40:52.309Z,84.71
2023-03-21T03:43:25.924Z,84.74
2023-03-21T03:45:58.417Z,84.70
2023-03-21T03:48:34.962Z,84.79
2023-03-21T03:51:07.611Z,84.39
2023-03-21T03:53:40.418Z,84.82
2023-03-21T03:56:11.181Z,84.47
2023-03-21T03:58:45.345Z,84.26
2023-03-21T04:01:13.367Z,84.38
2023-03-21T04:03:49.726Z,84.62
2023-03-21T04:06:19.146Z,84.68
2023-03-21T04:08:45.546Z,84.71
2023-03-21T04:11:15.600Z,85.23
2023-03-21T04:13:42.206Z,85.22
2023-03-21T04:16:11.028Z,85.42
2023-03-21T04:18:38.621Z,85.63
2023-03-21T04:21:13.168Z,85.44
2023-03-21T04:23:40.956Z,85.72
2023-03-21T04:26:08.123Z,85.48
2023-03-21T04:28:36.445Z,85.45
2023-03-21T04:31:16.016Z,85.81
2023-03-21T04:33:47.306Z,85.75
2023-03-21T04:36:25.786Z,85.71
2023-03-21T04:38:53.051Z,85.60
2023-03-21T04:41:19.700Z,85.62
2023-03-21T04:43:46.822Z,85.85
2023-03-21T04:46:13.313Z,85.91
2023-03-21T04:48:39.936Z,86.08
2023-03-21T04:51:06.418Z,86.17
2023-03-21T04:53:32.851Z,86.27
2023-03-21T04:56:01.182Z,86.25
2023-03-21T04:58:27.620Z,86.19
2023-03-21T05:00:54.136Z,86.35
2023-03-21T05:03:21.653Z,86.33
2023-03-21T05:05:48.962Z,86.58
2023-03-21T05:08:16.100Z,86.70
2023-03-21T05:10:42.808Z,86.74
2023-03-21T05:13:09.243Z,86.60
2023-03-21T05:15:36.225Z,86.68
2023-03-21T05:18:10.775Z,86.62
2023-03-21T05:20:43.274Z,86.44
2023-03-21T05:23:11.136Z,86.29
2023-03-21T05:25:39.108Z,86.39
2023-03-21T05:28:07.661Z,86.46
2023-03-21T05:30:34.673Z,86.21
2023-03-21T05:33:01.121Z,86.31
2023-03-21T05:35:27.847Z,86.32
2023-03-21T05:37:54.521Z,86.43
2023-03-21T05:40:21.425Z,86.20
2023-03-21T05:42:48.761Z,86.39
2023-03-21T05:45:17.879Z,86.31
2023-03-21T05:47:44.572Z,86.42
2023-03-21T05:50:12.781Z,86.52
2023-03-21T05:52:39.781Z,86.73
2023-03-21T05:55:08.918Z,86.89
2023-03-21T05:57:38.632Z,86.93
2023-03-21T06:00:07.752Z,86.78
2023-03-21T06:02:34.786Z,86.57
2023-03-21T06:05:05.703Z,86.64
2023-03-21T06:07:34.090Z,86.62
2023-03-21T06:10:00.903Z,86.60
2023-03-21T06:12:28.039Z,86.49
2023-03-21T06:14:55.384Z,86.30
2023-03-21T06:17:22.154Z,86.03
2023-03-21T06:19:48.812Z,86.04
2023-03-21T06:22:15.616Z,86.04
2023-03-21T06:24:45.085Z,86.21
2023-03-21T06:27:12.167Z,86.20
2023-03-21T06:29:39.564Z,86.45
2023-03-21T06:32:07.078Z,86.36
2023-03-21T06:34:39.500Z,86.36
2023-03-21T06:37:06.106Z,86.24
2023-03-21T06:39:32.872Z,86.32
2023-03-21T06:42:00.604Z,86.43
2023-03-21T06:44:28.015Z,86.12
2023-03-21T06:46:57.733Z,86.00
2023-03-21T06:49:24.372Z,86.37
2023-03-21T06:51:50.920Z,86.36
2023-03-21T06:54:18.297Z,86.17
2023-03-21T06:56:46.099Z,86.29
2023-03-21T06:59:13.222Z,86.04
2023-03-21T07:01:39.818Z,85.87
2023-03-21T07:04:06.277Z,85.77
2023-03-21T07:06:33.075Z,86.02
2023-03-21T07:09:00.064Z,86.02
2023-03-21T07:11:27.088Z,85.91
2023-03-21T07:13:54.232Z,86.03
2023-03-21T07:16:21.051Z,85.95
2023-03-21T07:18:47.812Z,85.90
2023-03-21T07:21:14.751Z,85.97
2023-03-21T07:23:41.377Z,85.88
2023-03-21T07:26:09.783Z,85.82
2023-03-21T07:28:36.368Z,85.59
2023-03-21T07:31:05.946Z,85.60
2023-03-21T07:33:33.438Z,85.61
2023-03-21T07:36:01.470Z,85.57
2023-03-21T07:38:30.547Z,85.48
2023-03-21T07:41:00.184Z,85.43
2023-03-21T07:43:26.576Z,85.34
2023-03-21T07:45:56.974Z,85.26
2023-03-21T07:48:24.079Z,85.24
2023-03-21T07:50:51.660Z,85.14
2023-03-21T07:53:22.934Z,84.95
2023-03-21T07:55:55.956Z,84.69
2023-03-21T07:58:24.077Z,84.38
2023-03-21T08:00:51.242Z,84.19
2023-03-21T08:03:18.646Z,83.96
2023-03-21T08:05:46.056Z,83.94
2023-03-21T08:08:13.201Z,83.74
2023-03-21T08:10:42.593Z,83.74
2023-03-21T08:13:12.138Z,83.45
2023-03-21T08:15:41.396Z,83.20
2023-03-21T08:18:11.453Z,82.77
2023-03-21T08:20:38.322Z,82.18
2023-03-21T08:23:24.175Z,82.19
2023-03-21T08:25:55.197Z,81.99
2023-03-21T08:28:22.630Z,81.58
2023-03-21T08:30:49.300Z,81.29
2023-03-21T08:33:18.055Z,81.04
2023-03-21T08:35:45.701Z,80.73
2023-03-21T08:38:13.214Z,80.57
2023-03-21T08:40:40.689Z,80.49
2023-03-21T08:43:07.202Z,79.60
2023-03-21T08:45:33.682Z,79.52
2023-03-21T08:48:00.627Z,79.12
2023-03-21T08:50:28.975Z,78.88
2023-03-21T08:52:56.063Z,78.69
2023-03-21T08:55:22.563Z,78.20
2023-03-21T08:57:49.079Z,77.28
2023-03-21T09:00:17.555Z,77.05
2023-03-21T09:02:46.247Z,77.06
2023-03-21T09:05:15.998Z,76.86
2023-03-21T09:07:43.873Z,76.59
2023-03-21T09:10:20.712Z,76.55
2023-03-21T09:12:50.301Z,76.63
2023-03-21T09:15:19.515Z,76.54
2023-03-21T09:17:51.908Z,76.21
2023-03-21T09:20:20.603Z,75.84
2023-03-21T09:22:48.966Z,74.83
2023-03-21T09:25:16.092Z,74.60
2023-03-21T09:27:45.442Z,74.61
2023-03-21T09:30:14.881Z,74.81
2023-03-21T09:32:41.580Z,74.67
2023-03-21T09:35:10.804Z,74.71
2023-03-21T09:37:41.497Z,74.55
2023-03-21T09:40:39.554Z,74.45
2023-03-21T09:43:37.554Z,72.86
2023-03-21T09:46:39.982Z,73.46
2023-03-21T09:49:15.108Z,73.18
2023-03-21T09:51:48.188Z,73.16
2023-03-21T09:54:33.290Z,72.84
2023-03-21T09:57:07.083Z,72.90
2023-03-21T09:59:39.533Z,72.08
2023-03-21T10:02:40.129Z,71.31
2023-03-21T10:05:22.951Z,72.02
2023-03-21T10:08:00.520Z,72.38
2023-03-21T10:10:31.846Z,72.28
2023-03-21T10:12:58.929Z,72.08
2023-03-21T10:15:26.838Z,72.22
2023-03-21T10:18:03.195Z,72.20
2023-03-21T10:20:32.727Z,71.97
2023-03-21T10:23:03.106Z,71.84
2023-03-21T10:25:37.463Z,71.64
2023-03-21T10:28:07.079Z,71.54
2023-03-21T10:31:05.277Z,71.31
2023-03-21T10:33:38.790Z,71.35
2023-03-21T10:36:07.767Z,70.30
2023-03-21T10:38:36.999Z,70.44
2023-03-21T10:41:03.579Z,70.10
2023-03-21T10:43:37.235Z,70.35
2023-03-21T10:46:14.222Z,70.37
2023-03-21T10:48:46.611Z,70.23
2023-03-21T10:51:20.199Z,70.27
2023-03-21T10:54:08.927Z,69.61
2023-03-21T10:56:40.277Z,69.35
2023-03-21T10:59:16.117Z,69.22
2023-03-21T11:01:45.925Z,69.26
2023-03-21T11:04:20.022Z,69.45
2023-03-21T11:06:59.258Z,69.47
2023-03-21T11:10:02.214Z,69.93
2023-03-21T11:12:40.228Z,70.60
2023-03-21T11:15:30.130Z,70.85
2023-03-21T11:17:58.927Z,71.08
2023-03-21T11:20:30.627Z,71.42
2023-03-21T11:22:57.171Z,71.67
2023-03-21T11:25:30.904Z,72.11
2023-03-21T11:27:58.934Z,72.84
2023-03-21T11:30:27.855Z,73.23
2023-03-21T11:33:00.500Z,73.39
2023-03-21T11:35:39.135Z,74.04
2023-03-21T11:38:23.375Z,74.24
2023-03-21T11:40:58.704Z,74.35
2023-03-21T11:43:31.910Z,74.66
2023-03-21T11:46:12.418Z,74.32
2023-03-21T11:48:48.373Z,74.16
2023-03-21T11:51:27.639Z,74.08
2023-03-21T11:54:15.539Z,74.02
2023-03-21T11:56:46.990Z,74.22
2023-03-21T11:59:31.477Z,74.43
2023-03-21T12:02:17.092Z,74.46
2023-03-21T12:04:54.862Z,74.39
2023-03-21T12:07:38.503Z,74.51
2023-03-21T12:10:40.377Z,74.72
2023-03-21T12:13:19.691Z,74.92
2023-03-21T12:16:23.696Z,75.19
2023-03-21T12:19:07.272Z,75.62
2023-03-21T12:21:45.374Z,76.11
2023-03-21T12:24:18.696Z,76.87
2023-03-21T12:26:59.149Z,77.22
2023-03-21T12:29:33.305Z,77.86
2023-03-21T12:32:14.874Z,77.79
2023-03-21T12:35:18.607Z,77.81
2023-03-21T12:38:08.617Z,78.15
2023-03-21T12:40:47.099Z,78.27
2023-03-21T12:43:16.237Z,78.04
2023-03-21T12:45:49.239Z,79.01
2023-03-21T12:48:34.894Z,78.77
2023-03-21T12:51:03.323Z,78.49
2023-03-21T12:53:42.576Z,78.38
2023-03-21T12:56:16.733Z,79.06
2023-03-21T12:58:53.975Z,79.35
2023-03-21T13:01:22.497Z,79.66
2023-03-21T13:04:24.430Z,79.29
2023-03-21T13:06:53.607Z,79.02
2023-03-21T13:09:37.346Z,78.57
2023-03-21T13:12:31.218Z,78.07
2023-03-21T13:15:25.731Z,77.75
2023-03-21T13:18:04.442Z,77.50
2023-03-21T13:20:49.067Z,77.16
2023-03-21T13:23:18.576Z,77.05
2023-03-21T13:25:47.982Z,76.83
2023-03-21T13:28:26.621Z,76.49
2023-03-21T13:31:13.770Z,76.22
2023-03-21T13:33:45.177Z,76.08
2023-03-21T13:36:14.829Z,75.97
2023-03-21T13:38:42.492Z,75.91
2023-03-21T13:41:20.368Z,75.80
2023-03-21T13:44:02.375Z,75.65
2023-03-21T13:46:28.915Z,75.58
2023-03-21T13:49:00.501Z,75.60
2023-03-21T13:51:36.868Z,75.62
2023-03-21T13:54:07.079Z,75.80
2023-03-21T13:56:49.731Z,75.83
2023-03-21T13:59:34.305Z,75.93
2023-03-21T14:02:27.295Z,76.07
2023-03-21T14:05:06.088Z,76.39
2023-03-21T14:07:34.420Z,76.84
2023-03-21T14:10:06.395Z,76.90
2023-03-21T14:12:44.491Z,77.32
2023-03-21T14:15:21.127Z,77.73
2023-03-21T14:17:56.188Z,78.31
2023-03-21T14:20:35.816Z,78.73
2023-03-21T14:23:05.895Z,79.00
2023-03-21T14:25:44.387Z,79.30
2023-03-21T14:28:23.824Z,79.46
2023-03-21T14:30:55.537Z,79.56
2023-03-21T14:33:27.046Z,79.70
2023-03-21T14:36:00.283Z,79.50
2023-03-21T14:38:33.112Z,79.45
2023-03-21T14:40:59.841Z,79.44
2023-03-21T14:43:27.525Z,79.41
2023-03-21T14:45:56.420Z,79.72
2023-03-21T14:48:33.724Z,79.69
2023-03-21T14:51:03.506Z,79.71
2023-03-21T14:53:35.265Z,79.73
2023-03-21T14:56:08.329Z,79.78
2023-03-21T14:58:39.719Z,79.76
2023-03-21T15:01:14.472Z,79.81
2023-03-21T15:03:45.072Z,79.78
2023-03-21T15:06:15.385Z,79.84
2023-03-21T15:08:55.214Z,79.88
2023-03-21T15:11:33.862Z,80.16
2023-03-21T15:14:07.184Z,79.91
2023-03-21T15:16:35.441Z,80.11
2023-03-21T15:19:04.571Z,80.31
2023-03-21T15:21:41.016Z,80.29
2023-03-21T15:24:15.693Z,80.33
2023-03-21T15:26:47.203Z,80.64
2023-03-21T15:29:16.136Z,80.55
2023-03-21T15:31:47.656Z,80.48
2023-03-21T15:34:21.421Z,80.30
2023-03-21T15:36:50.240Z,80.44
2023-03-21T15:39:23.145Z,80.40
2023-03-21T15:42:01.691Z,80.39
2023-03-21T15:44:29.289Z,80.44
2023-03-21T15:46:57.419Z,80.33
2023-03-21T15:49:33.282Z,80.23
2023-03-21T15:52:09.073Z,80.40
2023-03-21T15:54:56.189Z,80.76
2023-03-21T15:57:25.076Z,80.80
2023-03-21T15:59:58.352Z,80.85
2023-03-21T16:02:29.482Z,80.83
2023-03-21T16:05:03.551Z,80.81
2023-03-21T16:07:33.662Z,80.85
2023-03-21T16:10:03.979Z,80.70
2023-03-21T16:12:31.897Z,80.59
2023-03-21T16:14:58.401Z,80.60
2023-03-21T16:17:38.836Z,80.69
2023-03-21T16:20:22.158Z,80.78
2023-03-21T16:22:48.725Z,81.40
2023-03-21T16:25:16.163Z,81.32
2023-03-21T16:27:44.480Z,81.24
2023-03-21T16:30:15.754Z,81.29
2023-03-21T16:32:42.230Z,81.39
2023-03-21T16:35:09.158Z,81.77
2023-03-21T16:37:35.651Z,81.99
2023-03-21T16:40:05.299Z,81.90
2023-03-21T16:42:31.846Z,82.02
2023-03-21T16:44:58.292Z,81.99
2023-03-21T16:47:24.892Z,81.94
2023-03-21T16:49:51.343Z,81.91
2023-03-21T16:52:17.821Z,82.20
2023-03-21T16:54:47.789Z,82.44
2023-03-21T16:57:27.176Z,82.79
2023-03-21T16:59:55.348Z,82.89
2023-03-21T17:02:25.552Z,82.90
2023-03-21T17:04:52.705Z,82.81
2023-03-21T17:07:19.714Z,82.97
2023-03-21T17:09:47.424Z,83.12
2023-03-21T17:12:15.664Z,83.31
2023-03-21T17:14:43.372Z,83.41
2023-03-21T17:17:11.967Z,83.38
2023-03-21T17:19:39.264Z,83.47
2023-03-21T17:22:06.338Z,83.68
2023-03-21T17:24:33.588Z,83.87
2023-03-21T17:27:03.032Z,83.96
2023-03-21T17:29:30.388Z,83.94
2023-03-21T17:31:56.812Z,83.91
2023-03-21T17:34:23.377Z,83.98
2023-03-21T17:36:49.856Z,83.91
2023-03-21T17:39:23.650Z,83.90
2023-03-21T17:41:51.431Z,83.93
2023-03-21T17:44:19.411Z,84.02
2023-03-21T17:46:46.607Z,83.95
2023-03-21T17:49:15.264Z,83.85
2023-03-21T17:51:42.637Z,83.76
2023-03-21T17:54:09.765Z,83.73
2023-03-21T17:56:37.306Z,83.57
2023-03-21T17:59:06.605Z,83.56
2023-03-21T18:01:34.772Z,83.66
2023-03-21T18:04:04.198Z,83.69
2023-03-21T18:06:33.385Z,83.87
2023-03-21T18:09:06.163Z,84.01
2023-03-21T18:11:33.533Z,84.19
2023-03-21T18:14:14.330Z,84.41
2023-03-21T18:16:42.459Z,84.55
2023-03-21T18:19:12.147Z,84.53
2023-03-21T18:21:40.082Z,84.53
2023-03-21T18:24:07.144Z,84.54
2023-03-21T18:26:33.656Z,84.57
2023-03-21T18:32:02.565Z,84.72
2023-03-21T18:34:32.307Z,84.85
2023-03-21T18:36:59.091Z,84.83
2023-03-21T18:39:28.727Z,84.92
2023-03-21T18:42:00.174Z,85.02
2023-03-21T18:44:31.080Z,85.07
2023-03-21T18:46:58.633Z,85.00
2023-03-21T18:50:05.965Z,85.02
2023-03-21T18:52:11.770Z,85.08
2023-03-21T18:54:38.962Z,85.13
2023-03-21T18:59:54.997Z,85.34
2023-03-21T19:02:21.887Z,85.34
2023-03-21T19:04:49.046Z,85.40
2023-03-21T19:07:15.904Z,85.51
2023-03-21T19:10:05.294Z,85.55
2023-03-21T19:12:29.652Z,85.70
2023-03-21T19:14:56.327Z,85.73
2023-03-21T19:20:13.329Z,85.74
2023-03-21T19:22:40.703Z,85.77
2023-03-21T19:25:08.608Z,85.70
2023-03-21T19:27:37.363Z,85.67
2023-03-21T19:30:14.411Z,85.67
2023-03-21T19:32:43.259Z,85.76
2023-03-21T19:35:10.757Z,85.74
2023-03-21T19:37:37.786Z,85.75
2023-03-21T19:40:06.273Z,85.75
2023-03-21T19:42:35.515Z,85.71
2023-03-21T19:45:03.543Z,85.71
2023-03-21T19:47:30.150Z,85.72
2023-03-21T19:52:44.229Z,85.79
2023-03-21T19:55:10.653Z,85.82
2023-03-21T19:57:37.076Z,85.86
2023-03-21T20:00:04.913Z,85.91
2023-03-21T20:02:36.587Z,85.95
2023-03-21T20:05:06.036Z,86.03
2023-03-21T20:07:32.480Z,86.09
2023-03-21T20:09:59.150Z,86.15
2023-03-21T20:12:26.852Z,86.15
2023-03-21T20:15:05.622Z,86.16
2023-03-21T20:17:39.420Z,86.25
2023-03-21T20:20:13.349Z,86.24
2023-03-21T20:23:05.681Z,86.35
2023-03-21T20:25:29.458Z,86.42
2023-03-21T20:28:12.830Z,86.45
2023-03-21T20:30:53.403Z,86.49
2023-03-21T20:33:20.235Z,86.47
2023-03-21T20:38:36.102Z,86.50
2023-03-21T20:41:07.183Z,86.50
2023-03-21T20:46:20.951Z,86.43
2023-03-21T20:48:49.007Z,86.37
2023-03-21T20:52:40.466Z,86.32
2023-03-21T20:54:03.815Z,86.35
2023-03-21T20:56:30.399Z,86.35
2023-03-21T20:59:12.117Z,86.43
2023-03-21T21:01:42.561Z,86.54
2023-03-21T21:04:09.581Z,86.54
2023-03-21T21:06:36.025Z,86.54
2023-03-21T21:09:03.477Z,86.52
2023-03-21T21:14:17.080Z,86.49
2023-03-21T21:16:44.928Z,86.50
2023-03-21T21:19:11.853Z,86.53
2023-03-21T21:21:38.882Z,86.59
2023-03-21T21:24:07.594Z,86.61
2023-03-21T21:26:34.700Z,86.63
2023-03-21T21:29:01.312Z,86.63
2023-03-21T21:31:28.312Z,86.63
2023-03-21T21:33:55.420Z,86.64
2023-03-21T21:36:22.075Z,86.63
2023-03-21T21:38:48.960Z,86.67
2023-03-21T21:41:19.642Z,86.71
2023-03-21T21:43:47.643Z,86.73
2023-03-21T21:46:15.466Z,86.74
2023-03-21T21:48:43.218Z,86.72
2023-03-21T21:51:09.843Z,86.69
2023-03-21T21:53:38.215Z,86.68
2023-03-21T21:56:05.899Z,86.65
2023-03-21T21:58:33.193Z,86.64
2023-03-21T22:01:01.135Z,86.64
2023-03-21T22:03:35.787Z,86.64
2023-03-21T22:06:03.857Z,86.66
2023-03-21T22:08:30.443Z,86.67
2023-03-21T22:10:57.165Z,86.68
2023-03-21T22:13:24.076Z,86.71
2023-03-21T22:15:51.117Z,86.77
2023-03-21T22:18:17.529Z,86.77
2023-03-21T22:20:44.325Z,86.77
2023-03-21T22:23:11.087Z,86.81
2023-03-21T22:25:37.843Z,86.84
2023-03-21T22:28:04.819Z,86.91
2023-03-21T22:30:31.697Z,86.93
2023-03-21T22:33:08.949Z,86.93
2023-03-21T22:35:36.723Z,86.90
2023-03-21T22:38:03.209Z,86.90
2023-03-21T22:40:30.270Z,86.89
2023-03-21T22:42:57.308Z,86.92
2023-03-21T22:45:23.711Z,86.93
2023-03-21T22:47:50.197Z,86.95
2023-03-21T22:50:16.782Z,86.95
2023-03-21T22:52:43.304Z,87.02
2023-03-21T22:55:12.133Z,87.04
2023-03-21T22:57:38.709Z,87.05
2023-03-21T23:00:12.781Z,87.08
2023-03-21T23:02:40.742Z,87.11
2023-03-21T23:05:09.124Z,87.09
2023-03-21T23:07:35.701Z,87.05
2023-03-21T23:10:02.460Z,87.01
2023-03-21T23:12:28.881Z,87.05
2023-03-21T23:14:55.376Z,87.07
2023-03-21T23:17:21.789Z,87.07
2023-03-21T23:19:48.152Z,87.07
2023-03-21T23:22:14.605Z,87.09
2023-03-21T23:24:41.023Z,87.07
2023-03-21T23:27:07.419Z,87.07
2023-03-21T23:29:33.820Z,87.06
2023-03-21T23:32:00.330Z,87.03
2023-03-21T23:34:27.377Z,87.05
2023-03-21T23:36:53.815Z,87.01
2023-03-21T23:39:20.280Z,86.96
2023-03-21T23:41:46.724Z,86.95
2023-03-21T23:44:13.309Z,86.92
2023-03-21T23:46:39.682Z,86.88
2023-03-21T23:49:06.121Z,86.85
2023-03-21T23:51:32.535Z,86.81
2023-03-21T23:53:58.975Z,86.73
2023-03-21T23:56:26.394Z,86.64
2023-03-21T23:58:52.951Z,86.61
